Time;durP1;ratioP1;P1;durP2;ratioP2;P2;SDS_P1;SDS_P2;PMS_P1;PMS_P2;Temp;Humidity;BMP_temperature;BMP_pressure;BME280_temperature;BME280_humidity;BME280_pressure;Samples;Min_cycle;Max_cycle;Signal;HPM_P1;HPM_P2
2021/04/17 00:01:51;;;;;;;15.43;9.15;;;;;;;;;;5113933;28;20028;-47
2021/04/17 00:04:19;;;;;;;15.20;8.88;;;;;;;;;;5114136;28;20038;-48
2021/04/17 00:06:45;;;;;;;15.90;9.20;;;;;;;;;;5113959;28;20027;-45
2021/04/17 00:09:13;;;;;;;17.25;9.65;;;;;;;;;;5114127;28;20077;-47
2021/04/17 00:11:40;;;;;;;17.58;9.25;;;;;;;;;;5114097;28;20051;-45
2021/04/17 00:14:07;;;;;;;14.60;9.32;;;;;;;;;;5113733;28;20058;-48
2021/04/17 00:16:33;;;;;;;17.40;10.15;;;;;;;;;;5113937;28;20108;-46
2021/04/17 00:18:59;;;;;;;18.40;10.98;;;;;;;;;;5113869;28;20062;-46
2021/04/17 00:21:25;;;;;;;18.08;10.20;;;5.90;99.90;;;;;;5113766;28;20082;-48
2021/04/17 00:23:51;;;;;;;16.95;11.13;;;6.00;99.90;;;;;;5095166;28;20486;-46
2021/04/17 00:26:17;;;;;;;16.23;9.63;;;6.20;99.90;;;;;;5114321;28;20038;-50
2021/04/17 00:28:43;;;;;;;16.67;10.05;;;;;;;;;;5113782;28;20106;-47
2021/04/17 00:31:09;;;;;;;17.50;8.75;;;;;;;;;;5113556;28;20110;-42
2021/04/17 00:33:35;;;;;;;16.92;9.93;;;6.00;99.90;;;;;;5095076;28;20039;-42
2021/04/17 00:36:01;;;;;;;17.05;10.38;;;5.90;99.90;;;;;;5112319;28;20035;-48
2021/04/17 00:38:28;;;;;;;18.35;11.02;;;5.60;99.90;;;;;;5060887;28;20035;-44
2021/04/17 00:40:55;;;;;;;18.45;11.82;;;5.20;99.90;;;;;;5113666;28;20058;-51
2021/04/17 00:43:22;;;;;;;19.65;12.27;;;4.70;99.90;;;;;;5077807;28;20104;-47
2021/04/17 00:45:48;;;;;;;17.73;10.25;;;4.70;99.90;;;;;;5095010;28;20035;-47
2021/04/17 00:48:14;;;;;;;20.83;11.20;;;;;;;;;;5113608;28;20035;-47
2021/04/17 00:50:41;;;;;;;15.82;9.75;;;;;;;;;;5113379;28;20046;-45
2021/04/17 00:53:07;;;;;;;16.00;9.27;;;5.60;99.90;;;;;;5113750;28;20035;-45
2021/04/17 00:55:34;;;;;;;15.88;9.05;;;;;;;;;;5113577;28;20032;-49
2021/04/17 00:58:05;;;;;;;13.93;8.35;;;5.30;99.90;;;;;;5113345;28;20072;-46
2021/04/17 01:00:35;;;;;;;16.45;9.40;;;5.50;99.90;;;;;;5113341;28;20545;-50
2021/04/17 01:03:28;;;;;;;15.50;10.02;;;5.50;99.90;;;;;;5113230;28;20506;-50
2021/04/17 01:06:01;;;;;;;17.98;9.65;;;5.80;99.90;;;;;;5113351;28;20043;-45
2021/04/17 01:08:35;;;;;;;12.07;8.45;;;;;;;;;;5113653;28;20039;-46
2021/04/17 01:11:07;;;;;;;15.13;9.23;;;5.90;99.90;;;;;;5113338;28;20043;-47
2021/04/17 01:13:34;;;;;;;14.82;9.07;;;6.00;99.90;;;;;;5113285;28;20028;-43
2021/04/17 01:16:02;;;;;;;13.85;8.85;;;6.10;99.90;;;;;;5113664;28;20028;-46
2021/04/17 01:18:28;;;;;;;13.70;8.60;;;;;;;;;;5094620;28;20166;-45
2021/04/17 01:20:56;;;;;;;15.82;8.57;;;6.10;99.90;;;;;;5113456;28;20031;-48
2021/04/17 01:23:36;;;;;;;16.45;9.15;;;5.40;99.90;;;;;;5111637;28;20501;-45
2021/04/17 01:26:14;;;;;;;15.40;8.48;;;5.10;99.90;;;;;;5115017;28;20482;-45
2021/04/17 01:28:44;;;;;;;14.95;8.40;;;5.10;99.90;;;;;;5116901;28;20038;-50
2021/04/17 01:31:13;;;;;;;14.75;9.07;;;5.00;99.90;;;;;;5117057;28;20103;-48
2021/04/17 01:33:47;;;;;;;14.30;8.15;;;4.60;99.90;;;;;;5116834;28;20051;-48
2021/04/17 01:36:14;;;;;;;14.80;9.48;;;;;;;;;;5116656;28;20493;-43
2021/04/17 01:38:45;;;;;;;15.07;9.07;;;;;;;;;;5116924;28;20107;-45
2021/04/17 01:41:18;;;;;;;15.25;8.30;;;;;;;;;;5116583;28;20118;-45
2021/04/17 01:43:47;;;;;;;13.13;8.35;;;;;;;;;;5116564;28;20032;-50
2021/04/17 01:46:17;;;;;;;14.57;7.95;;;3.50;99.90;;;;;;5116678;28;20024;-48
2021/04/17 01:48:45;;;;;;;15.40;8.13;;;3.40;99.90;;;;;;5121214;28;20023;-49
2021/04/17 01:51:11;;;;;;;12.80;7.70;;;3.40;99.90;;;;;;5121809;28;20115;-67
2021/04/17 01:53:39;;;;;;;14.48;8.23;;;;;;;;;;5121423;28;20049;-45
2021/04/17 01:56:07;;;;;;;18.02;9.38;;;3.30;99.90;;;;;;5118756;28;20042;-47
2021/04/17 01:58:38;;;;;;;16.80;9.45;;;3.30;99.90;;;;;;5116618;28;20356;-45
2021/04/17 02:01:04;;;;;;;12.27;8.07;;;3.50;99.90;;;;;;5116199;28;20020;-46
2021/04/17 02:03:30;;;;;;;14.30;8.05;;;4.00;99.90;;;;;;5115921;28;20035;-45
2021/04/17 02:05:56;;;;;;;16.23;8.52;;;;;;;;;;5116356;27;20019;-45
2021/04/17 02:08:22;;;;;;;13.88;8.70;;;4.60;99.90;;;;;;5116641;28;20037;-48
2021/04/17 02:10:50;;;;;;;14.90;7.95;;;4.80;99.90;;;;;;5115876;28;20466;-50
2021/04/17 02:13:17;;;;;;;15.45;8.52;;;4.80;99.90;;;;;;5097234;28;20040;-49
2021/04/17 02:15:44;;;;;;;12.88;7.68;;;5.00;99.90;;;;;;5114086;28;20028;-49
2021/04/17 02:18:25;;;;;;;13.75;8.23;;;;;;;;;;5115981;27;20027;-45
2021/04/17 02:21:06;;;;;;;14.23;8.18;;;4.60;99.90;;;;;;5115773;28;20123;-45
2021/04/17 02:23:33;;;;;;;16.17;9.02;;;4.10;99.90;;;;;;5115925;28;20039;-49
2021/04/17 02:26:00;;;;;;;14.18;8.50;;;3.80;99.90;;;;;;5115834;28;20031;-47
2021/04/17 02:28:27;;;;;;;12.13;7.50;;;3.60;99.90;;;;;;5116055;28;20024;-44
2021/04/17 02:30:54;;;;;;;13.27;7.57;;;;;;;;;;5116332;28;20032;-48
2021/04/17 02:33:20;;;;;;;16.98;7.95;;;3.40;99.90;;;;;;5116119;28;20023;-41
2021/04/17 02:35:46;;;;;;;12.15;7.13;;;3.40;99.90;;;;;;5115454;27;20115;-47
2021/04/17 02:38:12;;;;;;;13.20;8.00;;;3.40;99.90;;;;;;5115414;28;20098;-50
2021/04/17 02:40:38;;;;;;;14.95;8.07;;;3.30;99.90;;;;;;5115437;28;20027;-50
2021/04/17 02:43:04;;;;;;;28.33;11.57;;;;;;;;;;5115393;28;20382;-46
2021/04/17 02:45:30;;;;;;;16.73;9.35;;;;;;;;;;5115852;28;20048;-47
2021/04/17 02:47:56;;;;;;;12.63;7.75;;;3.90;99.90;;;;;;5115168;28;20107;-48
2021/04/17 02:50:22;;;;;;;13.02;7.43;;;;;;;;;;5062943;28;20547;-48
2021/04/17 02:52:49;;;;;;;13.25;8.70;;;;;;;;;;5115286;28;20064;-48
2021/04/17 02:55:16;;;;;;;13.40;7.85;;;4.40;99.90;;;;;;5115115;28;20038;-44
2021/04/17 02:57:42;;;;;;;14.50;7.80;;;4.60;99.90;;;;;;5115053;28;20084;-46
2021/04/17 03:00:10;;;;;;;13.50;7.93;;;4.90;99.90;;;;;;5115114;28;20020;-45
2021/04/17 03:02:36;;;;;;;16.88;8.65;;;5.00;99.90;;;;;;5062528;28;20036;-42
2021/04/17 03:05:03;;;;;;;12.50;7.70;;;5.10;99.90;;;;;;5114984;28;20027;-47
2021/04/17 03:07:29;;;;;;;12.80;7.97;;;5.30;99.90;;;;;;5115054;28;20490;-47
2021/04/17 03:09:55;;;;;;;11.90;7.95;;;5.40;99.90;;;;;;5114836;28;20051;-45
2021/04/17 03:12:21;;;;;;;20.15;10.20;;;5.50;99.90;;;;;;5114796;28;20082;-43
2021/04/17 03:14:47;;;;;;;37.30;20.25;;;5.50;99.90;;;;;;5114779;28;20031;-45
2021/04/17 03:17:14;;;;;;;18.55;11.02;;;5.20;99.90;;;;;;5096071;28;20027;-46
2021/04/17 03:19:40;;;;;;;19.05;10.30;;;5.10;99.90;;;;;;5114676;28;20050;-42
2021/04/17 03:22:07;;;;;;;13.23;8.25;;;5.20;99.90;;;;;;5114780;28;20490;-50
2021/04/17 03:24:34;;;;;;;17.83;8.63;;;5.00;99.90;;;;;;5114713;28;20028;-45
2021/04/17 03:27:00;;;;;;;14.25;9.15;;;4.70;99.90;;;;;;5096290;28;20643;-45
2021/04/17 03:29:26;;;;;;;12.75;7.60;;;4.70;99.90;;;;;;5114559;28;20028;-48
2021/04/17 03:31:51;;;;;;;13.23;7.85;;;4.80;99.90;;;;;;5096582;28;20111;-47
2021/04/17 03:34:17;;;;;;;10.20;7.05;;;5.00;99.90;;;;;;5114639;28;20031;-48
2021/04/17 03:36:43;;;;;;;11.48;6.75;;;5.10;99.90;;;;;;5114358;28;20035;-45
2021/04/17 03:39:08;;;;;;;10.68;7.35;;;5.20;99.90;;;;;;5114608;28;20359;-43
2021/04/17 03:41:34;;;;;;;12.57;7.65;;;5.30;99.90;;;;;;5112399;28;20078;-50
2021/04/17 03:44:00;;;;;;;11.90;6.63;;;5.20;99.90;;;;;;5114377;28;20035;-48
2021/04/17 03:46:26;;;;;;;13.65;7.32;;;4.70;99.90;;;;;;5112946;28;20035;-49
2021/04/17 03:48:52;;;;;;;11.93;7.13;;;4.40;99.90;;;;;;5061235;28;20507;-45
2021/04/17 03:51:17;;;;;;;12.23;7.65;;;4.00;99.90;;;;;;5095380;28;20429;-45
2021/04/17 03:53:43;;;;;;;12.95;7.45;;;4.00;99.90;;;;;;5114370;28;20043;-49
2021/04/17 03:56:09;;;;;;;12.45;7.47;;;4.30;99.90;;;;;;5114167;28;20484;-49
2021/04/17 03:58:35;;;;;;;13.68;8.32;;;4.50;99.90;;;;;;5114256;28;20026;-46
2021/04/17 04:01:01;;;;;;;11.65;7.28;;;4.60;99.90;;;;;;5114001;28;20032;-47
2021/04/17 04:03:26;;;;;;;8.70;5.93;;;4.80;99.90;;;;;;5065068;28;20095;-46
2021/04/17 04:05:52;;;;;;;11.80;7.10;;;4.40;99.90;;;;;;5098496;27;20058;-44
2021/04/17 04:08:18;;;;;;;13.05;8.70;;;4.30;99.90;;;;;;5134453;27;20027;-46
2021/04/17 04:10:44;;;;;;;12.55;6.93;;;4.20;99.90;;;;;;5134169;27;20023;-48
2021/04/17 04:13:09;;;;;;;10.05;6.78;;;4.10;99.90;;;;;;5115500;28;20478;-49
2021/04/17 04:15:35;;;;;;;9.82;6.57;;;3.90;99.90;;;;;;5134606;27;20482;-43
2021/04/17 04:18:01;;;;;;;9.85;6.38;;;3.80;99.90;;;;;;5132544;28;20367;-45
2021/04/17 04:20:27;;;;;;;10.85;7.72;;;3.60;99.90;;;;;;5134468;27;20110;-45
2021/04/17 04:22:53;;;;;;;16.38;9.57;;;3.70;99.90;;;;;;5115392;28;20468;-44
2021/04/17 04:25:19;;;;;;;12.70;8.18;;;3.60;99.90;;;;;;5134365;28;20538;-45
2021/04/17 04:27:44;;;;;;;12.32;7.93;;;3.60;99.90;;;;;;5115703;28;20493;-48
2021/04/17 04:30:11;;;;;;;13.45;7.68;;;3.50;99.90;;;;;;5115278;28;20070;-44
2021/04/17 04:32:37;;;;;;;9.93;6.38;;;3.30;99.90;;;;;;5098446;28;20481;-48
2021/04/17 04:35:05;;;;;;;10.43;6.85;;;3.30;99.90;;;;;;5134229;27;20034;-45
2021/04/17 04:37:31;;;;;;;10.50;6.38;;;3.50;99.90;;;;;;5134180;27;20039;-42
2021/04/17 04:39:56;;;;;;;13.23;6.75;;;3.50;99.90;;;;;;5115211;28;20055;-47
2021/04/17 04:42:22;;;;;;;17.85;9.73;;;3.60;99.90;;;;;;5133950;28;20141;-44
2021/04/17 04:44:48;;;;;;;16.10;8.48;;;3.70;99.90;;;;;;5134327;27;20034;-48
2021/04/17 04:47:14;;;;;;;12.45;7.55;;;4.00;99.90;;;;;;5115355;28;20028;-44
2021/04/17 04:49:40;;;;;;;11.73;8.18;;;4.00;99.90;;;;;;5134077;28;20031;-47
2021/04/17 04:52:06;;;;;;;11.63;7.78;;;4.10;99.90;;;;;;5134018;27;20390;-50
2021/04/17 04:54:31;;;;;;;12.38;7.00;;;4.30;99.90;;;;;;5115263;28;20039;-48
2021/04/17 04:56:57;;;;;;;11.93;6.72;;;4.30;99.90;;;;;;5114933;28;20381;-50
2021/04/17 04:59:23;;;;;;;13.35;7.75;;;4.60;99.90;;;;;;5134118;27;20031;-44
2021/04/17 05:01:48;;;;;;;10.68;6.60;;;4.60;99.90;;;;;;5137141;27;20064;-46
2021/04/17 05:04:14;;;;;;;16.45;10.00;;;4.10;99.90;;;;;;5138021;27;20027;-49
2021/04/17 05:06:40;;;;;;;16.25;9.07;;;4.00;99.90;;;;;;5137838;27;20055;-48
2021/04/17 05:09:06;;;;;;;11.95;8.07;;;4.30;99.90;;;;;;5137753;27;20024;-48
2021/04/17 05:11:35;;;;;;;14.85;8.50;;;4.70;99.90;;;;;;5137502;27;20096;-45
2021/04/17 05:14:01;;;;;;;14.52;8.70;;;4.60;99.90;;;;;;5118687;27;20038;-47
2021/04/17 05:16:27;;;;;;;12.65;8.20;;;4.80;99.90;;;;;;5118599;27;20037;-45
2021/04/17 05:18:53;;;;;;;13.20;8.15;;;4.80;99.90;;;;;;5138427;27;20033;-45
2021/04/17 05:21:18;;;;;;;10.30;7.15;;;5.00;99.90;;;;;;5118680;27;20040;-48
2021/04/17 05:23:44;;;;;;;11.60;7.55;;;4.80;99.90;;;;;;5137665;27;20032;-46
2021/04/17 05:26:10;;;;;;;18.20;9.70;;;4.80;99.90;;;;;;5118756;27;20039;-46
2021/04/17 05:28:36;;;;;;;22.80;12.57;;;5.00;99.90;;;;;;5119302;27;20067;-46
2021/04/17 05:31:02;;;;;;;19.67;11.40;;;5.50;99.90;;;;;;5118993;27;20055;-45
2021/04/17 05:33:27;;;;;;;20.33;12.52;;;5.70;99.90;;;;;;5137361;27;20024;-44
2021/04/17 05:35:54;;;;;;;17.20;11.40;;;;;;;;;;5118765;27;20050;-41
2021/04/17 05:38:19;;;;;;;17.17;10.23;;;6.50;99.90;;;;;;5137323;27;20102;-46
2021/04/17 05:40:45;;;;;;;19.67;10.48;;;6.60;99.90;;;;;;5137291;27;20051;-46
2021/04/17 05:43:11;;;;;;;18.08;10.30;;;7.00;99.90;;;;;;5137206;27;20035;-45
2021/04/17 05:45:37;;;;;;;35.05;20.33;;;;;;;;;;5118098;27;20043;-44
2021/04/17 05:48:03;;;;;;;23.55;12.32;;;7.10;99.90;;;;;;5136826;27;20028;-45
2021/04/17 05:50:29;;;;;;;33.25;21.63;;;6.70;99.90;;;;;;5118090;27;20431;-50
2021/04/17 05:52:55;;;;;;;29.25;16.23;;;6.80;99.90;;;;;;5136904;27;20027;-46
2021/04/17 05:55:21;;;;;;;25.10;14.57;;;;;;;;;;5136751;27;20059;-48
2021/04/17 05:57:46;;;;;;;30.30;17.73;;;7.60;99.90;;;;;;5136927;27;20023;-44
2021/04/17 06:00:13;;;;;;;29.50;14.43;;;;;;;;;;5136714;27;20031;-43
2021/04/17 06:02:39;;;;;;;28.83;16.98;;;;;;;;;;5067217;27;20035;-47
2021/04/17 06:05:05;;;;;;;20.60;11.02;;;;;;;;;;5137110;27;20118;-42
2021/04/17 06:07:32;;;;;;;14.07;8.88;;;;;;;;;;5136922;27;20030;-45
2021/04/17 06:09:58;;;;;;;13.88;8.38;;;;;;;;;;5136803;27;20027;-46
2021/04/17 06:12:24;;;;;;;14.35;8.85;;;8.10;99.90;;;;;;5117154;27;20134;-44
2021/04/17 06:14:49;;;;;;;15.23;9.07;;;8.00;99.90;;;;;;5117511;27;20122;-50
2021/04/17 06:17:15;;;;;;;16.98;9.30;;;8.00;99.90;;;;;;5136447;27;20023;-50
2021/04/17 06:19:41;;;;;;;14.45;8.80;;;;;;;;;;5136387;27;20484;-49
2021/04/17 06:22:07;;;;;;;15.85;9.98;;;8.90;99.90;;;;;;5117304;27;20038;-47
2021/04/17 06:24:33;;;;;;;18.55;9.50;;;9.20;99.90;;;;;;5083302;27;20035;-53
2021/04/17 06:26:59;;;;;;;18.20;10.60;;;;;;;;;;5135897;27;20603;-47
2021/04/17 06:29:24;;;;;;;17.08;10.35;;;9.40;99.90;;;;;;5117203;27;20039;-49
2021/04/17 06:31:51;;;;;;;16.65;9.80;;;;;;;;;;5117000;27;20028;-51
2021/04/17 06:34:17;;;;;;;14.55;9.75;;;;;;;;;;5134399;27;20115;-49
2021/04/17 06:36:43;;;;;;;17.13;10.35;;;;;;;;;;5117298;27;20084;-55
2021/04/17 06:39:10;;;;;;;18.27;11.27;;;;;;;;;;5117184;27;20081;-52
2021/04/17 06:41:37;;;;;;;22.13;11.82;;;;;;;;;;5135946;27;20034;-47
2021/04/17 06:44:05;;;;;;;21.75;12.05;;;;;;;;;;5117032;27;20122;-45
2021/04/17 06:46:32;;;;;;;18.00;11.73;;;10.50;99.90;;;;;;5135868;27;20084;-47
2021/04/17 06:49:04;;;;;;;19.40;12.52;;;10.70;99.90;;;;;;5135884;27;20482;-50
2021/04/17 06:51:30;;;;;;;17.02;10.40;;;10.60;99.90;;;;;;5135822;27;20054;-46
2021/04/17 06:53:57;;;;;;;18.73;11.65;;;10.80;99.90;;;;;;5117129;27;20075;-51
2021/04/17 06:56:24;;;;;;;19.08;11.45;;;11.10;99.90;;;;;;5135882;27;20054;-50
2021/04/17 06:58:50;;;;;;;17.33;11.52;;;11.00;99.90;;;;;;5116963;27;20075;-52
2021/04/17 07:01:16;;;;;;;19.58;11.50;;;11.30;99.90;;;;;;5135666;27;20099;-47
2021/04/17 07:03:42;;;;;;;18.70;12.48;;;11.10;99.90;;;;;;5099650;27;20067;-50
2021/04/17 07:06:08;;;;;;;19.05;11.02;;;11.10;99.90;;;;;;5135265;27;20023;-54
2021/04/17 07:08:38;;;;;;;19.10;11.38;;;11.20;99.90;;;;;;5116664;27;20587;-50
2021/04/17 07:11:04;;;;;;;16.92;10.57;;;11.20;99.90;;;;;;5134885;27;20048;-51
2021/04/17 07:13:30;;;;;;;16.30;10.60;;;;;;;;;;5116307;27;20046;-48
2021/04/17 07:16:05;;;;;;;16.42;11.43;;;11.80;99.90;;;;;;5135412;27;20122;-49
2021/04/17 07:18:32;;;;;;;18.05;11.45;;;;;;;;;;5116315;27;20043;-55
2021/04/17 07:21:18;;;;;;;17.02;10.32;;;11.90;99.90;;;;;;5116242;27;20039;-50
2021/04/17 07:23:46;;;;;;;16.80;10.88;;;12.00;99.90;;;;;;5134429;27;20042;-47
2021/04/17 07:26:14;;;;;;;15.63;10.40;;;12.10;99.90;;;;;;5135187;27;20493;-46
2021/04/17 07:28:56;;;;;;;18.67;11.40;;;;;;;;;;5135365;27;20053;-47
2021/04/17 07:31:23;;;;;;;15.63;11.27;;;12.60;99.90;;;;;;5134941;27;20033;-46
2021/04/17 07:33:49;;;;;;;22.40;14.07;;;12.50;99.90;;;;;;5134914;27;20042;-51
2021/04/17 07:36:18;;;;;;;22.23;12.75;;;12.40;99.90;;;;;;5134991;27;20027;-48
2021/04/17 07:38:45;;;;;;;22.35;13.52;;;12.50;99.90;;;;;;5116203;27;20114;-51
2021/04/17 07:41:18;;;;;;;23.83;14.35;;;12.50;99.90;;;;;;5134914;27;20023;-43
2021/04/17 07:43:46;;;;;;;20.00;12.20;;;12.50;99.90;;;;;;5115876;27;20055;-47
2021/04/17 07:46:13;;;;;;;17.73;11.57;;;12.70;99.90;;;;;;5135174;27;20023;-47
2021/04/17 07:48:39;;;;;;;18.60;12.13;;;12.60;99.90;;;;;;5134875;27;20031;-45
2021/04/17 07:51:07;;;;;;;20.38;12.38;;;12.70;99.90;;;;;;5134663;27;20019;-48
2021/04/17 07:53:34;;;;;;;19.27;12.15;;;;;;;;;;5134693;27;20027;-46
2021/04/17 07:56:23;;;;;;;22.10;12.40;;;13.20;99.90;;;;;;5134282;27;20082;-47
2021/04/17 07:58:51;;;;;;;17.52;11.27;;;13.00;99.90;;;;;;5134771;27;20026;-47
2021/04/17 08:01:18;;;;;;;19.60;10.68;;;13.20;99.90;;;;;;5134633;27;20419;-50
2021/04/17 08:03:46;;;;;;;16.67;10.38;;;;;;;;;;5131040;27;20554;-44
2021/04/17 08:06:15;;;;;;;16.35;9.80;;;12.50;99.90;;;;;;5114475;28;20051;-51
2021/04/17 08:08:42;;;;;;;16.52;8.65;;;12.70;99.90;;;;;;5113905;28;20024;-46
2021/04/17 08:11:09;;;;;;;11.98;7.50;;;12.60;99.90;;;;;;5111567;28;20491;-46
2021/04/17 08:13:39;;;;;;;15.10;7.32;;;12.70;99.90;;;;;;5109141;28;20043;-51
2021/04/17 08:16:07;;;;;;;10.43;6.97;;;13.10;99.90;;;;;;5092114;28;20382;-47
2021/04/17 08:18:35;;;;;;;12.30;7.68;;;12.80;99.90;;;;;;5111736;28;20035;-47
2021/04/17 08:21:02;;;;;;;13.05;9.10;;;12.80;99.90;;;;;;5111549;28;20422;-49
2021/04/17 08:23:28;;;;;;;12.60;8.05;;;;;;;;;;5111525;28;20058;-47
2021/04/17 08:25:55;;;;;;;12.73;8.45;;;13.80;99.60;;;;;;5094683;28;20032;-47
2021/04/17 08:28:22;;;;;;;12.13;7.47;;;;;;;;;;5111537;28;20031;-47
2021/04/17 08:30:48;;;;;;;9.40;5.45;;;;;;;;;;5094622;28;20403;-50
2021/04/17 08:33:16;;;;;;;8.68;5.80;;;;;;;;;;5111560;28;20023;-50
2021/04/17 08:35:42;;;;;;;9.52;6.38;;;;;;;;;;5097759;28;20481;-50
2021/04/17 08:38:11;;;;;;;8.20;5.00;;;13.20;99.90;;;;;;5116294;28;20482;-47
2021/04/17 08:40:37;;;;;;;9.70;5.97;;;12.90;99.90;;;;;;5115859;28;20042;-47
2021/04/17 08:43:06;;;;;;;6.55;4.57;;;;;;;;;;5117331;28;20402;-47
2021/04/17 08:45:32;;;;;;;8.88;4.63;;;12.30;98.40;;;;;;5117591;28;20046;-48
2021/04/17 08:48:00;;;;;;;7.95;5.15;;;12.80;96.10;;;;;;5117835;28;20486;-51
2021/04/17 08:50:34;;;;;;;5.38;3.90;;;;;;;;;;5117827;27;20120;-52
2021/04/17 08:53:00;;;;;;;7.43;5.18;;;;;;;;;;5138001;27;20050;-52
2021/04/17 08:55:30;;;;;;;8.93;5.30;;;;;;;;;;5130712;27;20020;-52
2021/04/17 08:58:15;;;;;;;8.13;5.25;;;13.60;99.90;;;;;;5117744;28;20430;-50
2021/04/17 09:01:01;;;;;;;8.95;5.07;;;;;;;;;;5117487;28;20141;-49
2021/04/17 09:03:44;;;;;;;7.50;5.07;;;;;;;;;;5049703;28;20098;-51
2021/04/17 09:06:30;;;;;;;6.55;4.68;;;;;;;;;;5086945;28;20041;-48
2021/04/17 09:09:20;;;;;;;6.60;4.88;;;13.60;90.40;;;;;;5065590;28;20479;-47
2021/04/17 09:11:48;;;;;;;6.18;4.18;;;13.80;91.00;;;;;;5074251;28;20052;-48
2021/04/17 09:14:33;;;;;;;9.50;6.05;;;14.00;90.40;;;;;;5074453;28;20064;-49
2021/04/17 09:17:01;;;;;;;9.20;5.95;;;13.80;90.50;;;;;;5074042;28;20072;-54
2021/04/17 09:19:44;;;;;;;11.20;6.03;;;13.80;91.00;;;;;;5074144;28;20033;-47
2021/04/17 09:22:31;;;;;;;8.77;5.60;;;13.50;89.80;;;;;;5074116;28;20078;-47
2021/04/17 09:24:59;;;;;;;7.25;4.82;;;13.70;90.00;;;;;;5074032;28;20097;-47
2021/04/17 09:27:26;;;;;;;20.60;8.98;;;;;;;;;;5086720;27;20039;-53
2021/04/17 09:29:59;;;;;;;12.60;7.80;;;;;;;;;;5132771;27;20038;-48
2021/04/17 09:32:40;;;;;;;10.98;7.35;;;15.70;99.90;;;;;;5114992;28;20032;-48
2021/04/17 09:35:14;;;;;;;8.60;5.65;;;15.40;89.70;;;;;;5116694;28;20059;-48
2021/04/17 09:37:41;;;;;;;9.15;6.22;;;15.00;85.50;;;;;;5116642;27;20031;-48
2021/04/17 09:40:08;;;;;;;8.60;5.55;;;14.90;84.80;;;;;;5116724;28;20405;-49
2021/04/17 09:42:36;;;;;;;11.40;7.70;;;14.20;83.40;;;;;;5116471;28;20074;-45
2021/04/17 09:45:08;;;;;;;8.68;6.28;;;14.60;82.00;;;;;;5116490;28;20028;-51
2021/04/17 09:47:34;;;;;;;9.32;5.82;;;15.00;84.40;;;;;;5076002;28;20036;-51
2021/04/17 09:50:00;;;;;;;9.00;6.15;;;15.20;81.80;;;;;;5076876;28;20159;-54
2021/04/17 09:52:27;;;;;;;13.55;6.80;;;15.10;81.20;;;;;;5093839;28;20463;-51
2021/04/17 09:54:59;;;;;;;9.00;6.30;;;15.60;99.90;;;;;;5093931;28;20094;-48
2021/04/17 09:57:25;;;;;;;9.07;5.65;;;15.20;83.10;;;;;;5093685;28;20036;-45
2021/04/17 09:59:52;;;;;;;8.80;6.38;;;15.10;82.50;;;;;;5093714;28;20534;-49
2021/04/17 10:02:18;;;;;;;8.02;5.18;;;15.30;81.00;;;;;;5093521;28;20063;-51
2021/04/17 10:04:48;;;;;;;9.52;5.95;;;;;;;;;;5084234;28;20438;-50
2021/04/17 10:07:13;;;;;;;10.32;6.03;;;15.20;79.10;;;;;;5079800;28;20111;-50
2021/04/17 10:09:39;;;;;;;9.57;5.70;;;14.90;82.00;;;;;;5113727;28;20153;-52
2021/04/17 10:12:08;;;;;;;6.78;5.47;;;14.70;92.30;;;;;;5113619;28;20493;-49
2021/04/17 10:14:35;;;;;;;8.38;5.55;;;;;;;;;;5096151;28;20044;-46
2021/04/17 10:17:01;;;;;;;9.00;5.97;;;13.70;78.40;;;;;;5111842;28;20023;-49
2021/04/17 10:19:30;;;;;;;7.20;5.15;;;13.80;79.90;;;;;;5127463;27;20483;-51
2021/04/17 10:21:59;;;;;;;12.52;7.35;;;13.90;82.50;;;;;;5134665;27;20053;-48
2021/04/17 10:24:28;;;;;;;10.80;6.60;;;14.30;81.00;;;;;;5135822;27;20038;-46
2021/04/17 10:26:56;;;;;;;6.80;4.70;;;14.00;82.50;;;;;;5136234;27;20439;-48
2021/04/17 10:29:52;;;;;;;8.93;5.80;;;14.20;81.10;;;;;;5136392;27;20023;-45
2021/04/17 10:32:24;;;;;;;7.00;5.28;;;13.70;79.80;;;;;;5135073;27;20034;-49
2021/04/17 10:34:55;;;;;;;8.10;5.53;;;13.90;83.00;;;;;;5136125;27;20030;-48
2021/04/17 10:37:23;;;;;;;8.73;6.18;;;13.80;81.40;;;;;;5136066;27;20035;-46
2021/04/17 10:40:10;;;;;;;8.10;5.88;;;14.00;83.90;;;;;;5136098;27;20096;-45
2021/04/17 10:42:44;;;;;;;9.90;6.82;;;13.80;83.50;;;;;;5136233;27;20043;-46
2021/04/17 10:45:11;;;;;;;10.40;7.20;;;13.80;83.20;;;;;;5136216;27;20019;-46
2021/04/17 10:47:37;;;;;;;9.70;6.10;;;14.10;85.00;;;;;;5135805;27;20060;-45
2021/04/17 10:50:23;;;;;;;10.02;6.40;;;14.00;86.70;;;;;;5135705;27;20107;-43
2021/04/17 10:52:57;;;;;;;7.80;5.40;;;14.00;81.40;;;;;;5066009;27;20389;-45
2021/04/17 10:55:39;;;;;;;8.93;5.97;;;14.20;81.30;;;;;;5116418;27;20035;-43
2021/04/17 10:58:06;;;;;;;;;;;14.20;80.20;;;;;;5116764;27;20083;-45
2021/04/17 11:00:36;;;;;;;10.73;6.03;;;14.30;84.20;;;;;;5065909;27;19971;-44
2021/04/17 11:03:03;;;;;;;7.50;6.32;;;13.60;78.80;;;;;;5116248;27;20054;-43
2021/04/17 11:05:33;;;;;;;16.83;9.18;;;14.00;80.50;;;;;;5131710;27;20036;-43
2021/04/17 11:08:01;;;;;;;11.48;6.10;;;14.20;81.60;;;;;;5116688;27;20059;-49
2021/04/17 11:10:35;;;;;;;9.68;7.03;;;14.00;80.60;;;;;;5099781;28;20387;-43
2021/04/17 11:13:04;;;;;;;40.97;30.77;;;13.90;80.70;;;;;;5113686;28;20047;-44
2021/04/17 11:15:30;;;;;;;11.48;7.88;;;13.70;80.00;;;;;;5113969;28;20107;-44
2021/04/17 11:18:19;;;;;;;11.20;7.45;;;13.90;83.20;;;;;;5090431;28;20070;-44
2021/04/17 11:20:52;;;;;;;10.73;7.07;;;14.10;83.00;;;;;;5073028;28;20093;-44
2021/04/17 11:23:36;;;;;;;13.30;7.25;;;14.60;81.50;;;;;;5056756;28;20058;-44
2021/04/17 11:26:05;;;;;;;9.85;6.60;;;14.10;80.60;;;;;;5090722;28;20024;-44
2021/04/17 11:28:31;;;;;;;11.15;7.03;;;14.10;80.10;;;;;;5057021;28;20040;-44
2021/04/17 11:30:57;;;;;;;10.13;7.20;;;14.00;80.20;;;;;;5090560;28;20036;-44
2021/04/17 11:33:24;;;;;;;9.55;6.55;;;14.00;80.60;;;;;;5090396;28;20480;-44
2021/04/17 11:35:50;;;;;;;11.43;7.22;;;14.00;83.30;;;;;;5090516;28;20158;-44
2021/04/17 11:38:16;;;;;;;8.77;5.97;;;14.00;84.00;;;;;;5090474;28;20114;-44
2021/04/17 11:40:42;;;;;;;10.27;6.50;;;13.90;83.90;;;;;;5090636;28;20103;-44
2021/04/17 11:43:08;;;;;;;10.52;6.55;;;14.10;81.80;;;;;;5090304;28;20073;-44
2021/04/17 11:45:34;;;;;;;10.50;6.63;;;14.30;82.00;;;;;;5073093;28;20044;-44
2021/04/17 11:48:00;;;;;;;8.50;6.10;;;14.50;83.00;;;;;;5075621;28;20032;-45
2021/04/17 11:50:26;;;;;;;9.85;6.00;;;14.20;79.30;;;;;;5060035;28;20124;-44
2021/04/17 11:52:52;;;;;;;8.15;6.20;;;13.90;80.20;;;;;;5093792;28;20046;-44
2021/04/17 11:55:17;;;;;;;9.77;6.07;;;14.40;80.90;;;;;;5110836;28;20027;-44
2021/04/17 11:57:43;;;;;;;10.25;6.57;;;14.80;81.80;;;;;;5093754;28;20067;-44
2021/04/17 12:00:09;;;;;;;7.90;5.80;;;14.50;78.90;;;;;;5112798;28;20055;-45
2021/04/17 12:02:35;;;;;;;10.75;6.95;;;14.40;78.80;;;;;;5043263;28;20108;-44
2021/04/17 12:05:01;;;;;;;9.77;6.88;;;14.50;81.40;;;;;;5093072;28;20546;-44
2021/04/17 12:07:27;;;;;;;9.40;6.53;;;14.20;80.60;;;;;;5112816;28;20591;-44
2021/04/17 12:09:53;;;;;;;11.05;6.15;;;14.20;83.50;;;;;;5109952;28;20596;-45
2021/04/17 12:12:19;;;;;;;10.23;6.50;;;14.40;81.90;;;;;;5089775;28;20134;-43
2021/04/17 12:14:48;;;;;;;11.18;6.97;;;14.30;82.10;;;;;;5092379;28;20036;-43
2021/04/17 12:17:14;;;;;;;7.80;5.18;;;14.60;82.30;;;;;;5090745;28;20039;-43
2021/04/17 12:19:40;;;;;;;6.95;5.18;;;;;;;;;;5092318;28;20029;-43
2021/04/17 12:22:06;;;;;;;6.88;4.55;;;13.70;79.70;;;;;;5092248;28;20064;-43
2021/04/17 12:24:32;;;;;;;7.75;5.22;;;13.70;80.80;;;;;;5092019;28;20059;-43
2021/04/17 12:26:58;;;;;;;8.20;6.22;;;14.10;82.30;;;;;;5073343;28;20448;-42
2021/04/17 12:29:24;;;;;;;9.55;5.80;;;14.40;82.90;;;;;;5092453;28;20020;-42
2021/04/17 12:31:50;;;;;;;8.00;5.63;;;14.40;80.00;;;;;;5092163;28;20043;-42
2021/04/17 12:34:16;;;;;;;7.22;5.22;;;14.50;80.70;;;;;;5090031;28;20040;-43
2021/04/17 12:36:41;;;;;;;7.50;5.38;;;14.80;82.80;;;;;;5092304;28;20031;-43
2021/04/17 12:39:07;;;;;;;8.73;5.78;;;14.50;81.60;;;;;;5055923;28;20040;-42
2021/04/17 12:41:33;;;;;;;9.85;6.50;;;14.00;83.20;;;;;;5092293;28;20474;-43
2021/04/17 12:43:59;;;;;;;10.27;6.35;;;13.50;82.10;;;;;;5091679;28;20037;-42
2021/04/17 12:46:25;;;;;;;8.48;6.05;;;13.70;83.90;;;;;;5089984;28;20032;-42
2021/04/17 12:48:51;;;;;;;10.98;6.97;;;13.30;84.50;;;;;;5092131;28;20036;-42
2021/04/17 12:51:17;;;;;;;9.70;6.43;;;13.50;84.20;;;;;;5106620;28;20046;-43
2021/04/17 12:53:42;;;;;;;8.10;4.93;;;13.20;85.10;;;;;;5092104;28;20578;-43
2021/04/17 12:56:08;;;;;;;14.15;7.85;;;12.40;86.30;;;;;;5091823;28;20028;-43
2021/04/17 12:58:38;;;;;;;7.20;5.07;;;12.80;88.00;;;;;;5092008;28;20069;-43
2021/04/17 13:01:04;;;;;;;8.02;5.05;;;12.90;88.00;;;;;;5073662;28;20044;-42
2021/04/17 13:03:30;;;;;;;7.45;5.32;;;13.10;87.50;;;;;;5091993;28;20028;-42
2021/04/17 13:05:56;;;;;;;13.57;7.38;;;;;;;;;;5106635;28;20104;-43
2021/04/17 13:08:24;;;;;;;7.70;4.85;;;13.50;87.30;;;;;;5091807;28;20020;-43